sensor_id;sensor_type;location;lat;lon;timestamp;temperature;humidity
17092;DHT22;8661;45.700;4.880;2023-04-01T00:01:29;9.80;99.90
17092;DHT22;8661;45.700;4.880;2023-04-01T00:03:56;9.80;99.90
17092;DHT22;8661;45.700;4.880;2023-04-01T00:06:23;9.70;99.90
17092;DHT22;8661;45.700;4.880;2023-04-01T00:08:51;9.60;99.90
17092;DHT22;8661;45.700;4.880;2023-04-01T00:11:18;9.60;99.90
17092;DHT22;8661;45.700;4.880;2023-04-01T00:13:47;9.50;99.90
17092;DHT22;8661;45.700;4.880;2023-04-01T00:16:14;9.40;99.90
17092;DHT22;8661;45.700;4.880;2023-04-01T00:18:42;9.40;99.90
17092;DHT22;8661;45.700;4.880;2023-04-01T00:21:09;9.40;99.90
17092;DHT22;8661;45.700;4.880;2023-04-01T00:23:36;9.30;99.90
17092;DHT22;8661;45.700;4.880;2023-04-01T00:26:04;9.30;99.90
17092;DHT22;8661;45.700;4.880;2023-04-01T00:28:33;9.20;99.90
17092;DHT22;8661;45.700;4.880;2023-04-01T00:31:04;9.10;99.90
17092;DHT22;8661;45.700;4.880;2023-04-01T00:33:31;9.10;99.90
17092;DHT22;8661;45.700;4.880;2023-04-01T00:36:06;9.10;99.90
17092;DHT22;8661;45.700;4.880;2023-04-01T00:38:33;9.20;99.90
17092;DHT22;8661;45.700;4.880;2023-04-01T00:41:00;9.10;99.90
17092;DHT22;8661;45.700;4.880;2023-04-01T00:43:29;9.10;99.90
17092;DHT22;8661;45.700;4.880;2023-04-01T00:45:56;9.10;99.90
17092;DHT22;8661;45.700;4.880;2023-04-01T00:48:26;9.10;99.90
17092;DHT22;8661;45.700;4.880;2023-04-01T00:50:56;9.10;99.90
17092;DHT22;8661;45.700;4.880;2023-04-01T00:53:24;9.20;99.90
17092;DHT22;8661;45.700;4.880;2023-04-01T00:56:00;9.30;99.90
17092;DHT22;8661;45.700;4.880;2023-04-01T00:58:31;9.20;99.90
17092;DHT22;8661;45.700;4.880;2023-04-01T01:01:00;9.30;99.90
17092;DHT22;8661;45.700;4.880;2023-04-01T01:03:27;9.30;99.90
17092;DHT22;8661;45.700;4.880;2023-04-01T01:06:11;9.40;99.90
17092;DHT22;8661;45.700;4.880;2023-04-01T01:09:06;9.40;99.90
17092;DHT22;8661;45.700;4.880;2023-04-01T01:11:39;9.40;99.90
17092;DHT22;8661;45.700;4.880;2023-04-01T01:14:16;9.30;99.90
17092;DHT22;8661;45.700;4.880;2023-04-01T01:16:50;9.30;99.90
17092;DHT22;8661;45.700;4.880;2023-04-01T01:19:33;9.10;99.90
17092;DHT22;8661;45.700;4.880;2023-04-01T01:22:30;9.10;99.90
17092;DHT22;8661;45.700;4.880;2023-04-01T01:25:23;9.10;99.90
17092;DHT22;8661;45.700;4.880;2023-04-01T01:27:58;9.10;99.90
17092;DHT22;8661;45.700;4.880;2023-04-01T01:30:39;9.10;99.90
17092;DHT22;8661;45.700;4.880;2023-04-01T01:33:28;9.20;99.90
17092;DHT22;8661;45.700;4.880;2023-04-01T01:36:02;9.20;99.90
17092;DHT22;8661;45.700;4.880;2023-04-01T01:38:33;9.20;99.90
17092;DHT22;8661;45.700;4.880;2023-04-01T01:41:01;9.30;99.90
17092;DHT22;8661;45.700;4.880;2023-04-01T01:43:31;9.30;99.90
17092;DHT22;8661;45.700;4.880;2023-04-01T01:46:00;9.40;99.90
17092;DHT22;8661;45.700;4.880;2023-04-01T01:48:29;9.40;99.90
17092;DHT22;8661;45.700;4.880;2023-04-01T01:50:56;9.50;99.90
17092;DHT22;8661;45.700;4.880;2023-04-01T01:53:25;9.40;99.90
17092;DHT22;8661;45.700;4.880;2023-04-01T01:55:52;9.50;99.90
17092;DHT22;8661;45.700;4.880;2023-04-01T01:58:22;9.50;99.90
17092;DHT22;8661;45.700;4.880;2023-04-01T02:00:53;9.50;99.90
17092;DHT22;8661;45.700;4.880;2023-04-01T02:03:23;9.50;99.90
17092;DHT22;8661;45.700;4.880;2023-04-01T02:05:52;9.50;99.90
17092;DHT22;8661;45.700;4.880;2023-04-01T02:08:23;9.40;99.90
17092;DHT22;8661;45.700;4.880;2023-04-01T02:10:57;9.40;99.90
17092;DHT22;8661;45.700;4.880;2023-04-01T02:13:29;9.40;99.90
17092;DHT22;8661;45.700;4.880;2023-04-01T02:16:00;9.40;99.90
17092;DHT22;8661;45.700;4.880;2023-04-01T02:18:30;9.30;99.90
17092;DHT22;8661;45.700;4.880;2023-04-01T02:21:00;9.30;99.90
17092;DHT22;8661;45.700;4.880;2023-04-01T02:23:31;9.30;99.90
17092;DHT22;8661;45.700;4.880;2023-04-01T02:26:01;9.20;99.90
17092;DHT22;8661;45.700;4.880;2023-04-01T02:28:28;9.20;99.90
17092;DHT22;8661;45.700;4.880;2023-04-01T02:30:57;9.20;99.90
17092;DHT22;8661;45.700;4.880;2023-04-01T02:33:27;9.20;99.90
17092;DHT22;8661;45.700;4.880;2023-04-01T02:35:54;9.30;99.90
17092;DHT22;8661;45.700;4.880;2023-04-01T02:38:21;9.40;99.90
17092;DHT22;8661;45.700;4.880;2023-04-01T02:40:50;9.50;99.90
17092;DHT22;8661;45.700;4.880;2023-04-01T02:43:19;9.60;99.90
17092;DHT22;8661;45.700;4.880;2023-04-01T02:45:46;9.70;99.90
17092;DHT22;8661;45.700;4.880;2023-04-01T02:48:13;9.80;99.90
17092;DHT22;8661;45.700;4.880;2023-04-01T02:50:40;9.90;99.90
17092;DHT22;8661;45.700;4.880;2023-04-01T02:53:07;10.00;99.90
17092;DHT22;8661;45.700;4.880;2023-04-01T02:55:35;10.00;99.90
17092;DHT22;8661;45.700;4.880;2023-04-01T02:58:02;10.10;99.90
17092;DHT22;8661;45.700;4.880;2023-04-01T03:00:30;10.10;99.90
17092;DHT22;8661;45.700;4.880;2023-04-01T03:02:57;10.10;99.90
17092;DHT22;8661;45.700;4.880;2023-04-01T03:05:25;10.20;99.90
17092;DHT22;8661;45.700;4.880;2023-04-01T03:07:52;10.20;99.90
17092;DHT22;8661;45.700;4.880;2023-04-01T03:10:18;10.20;99.90
17092;DHT22;8661;45.700;4.880;2023-04-01T03:12:45;10.20;99.90
17092;DHT22;8661;45.700;4.880;2023-04-01T03:15:13;10.20;99.90
17092;DHT22;8661;45.700;4.880;2023-04-01T03:17:42;10.20;99.90
17092;DHT22;8661;45.700;4.880;2023-04-01T03:20:10;10.20;99.90
17092;DHT22;8661;45.700;4.880;2023-04-01T03:22:38;10.20;99.90
17092;DHT22;8661;45.700;4.880;2023-04-01T03:25:06;10.20;99.90
17092;DHT22;8661;45.700;4.880;2023-04-01T03:27:33;10.30;99.90
17092;DHT22;8661;45.700;4.880;2023-04-01T03:30:01;10.30;99.90
17092;DHT22;8661;45.700;4.880;2023-04-01T03:32:28;10.30;99.90
17092;DHT22;8661;45.700;4.880;2023-04-01T03:34:56;10.30;99.90
17092;DHT22;8661;45.700;4.880;2023-04-01T03:37:23;10.30;99.90
17092;DHT22;8661;45.700;4.880;2023-04-01T03:39:50;10.30;99.90
17092;DHT22;8661;45.700;4.880;2023-04-01T03:42:17;10.30;99.90
17092;DHT22;8661;45.700;4.880;2023-04-01T03:44:44;10.30;99.90
17092;DHT22;8661;45.700;4.880;2023-04-01T03:47:11;10.30;99.90
17092;DHT22;8661;45.700;4.880;2023-04-01T03:49:38;10.40;99.90
17092;DHT22;8661;45.700;4.880;2023-04-01T03:52:09;10.40;99.90
17092;DHT22;8661;45.700;4.880;2023-04-01T03:54:36;10.40;99.90
17092;DHT22;8661;45.700;4.880;2023-04-01T03:57:03;10.50;99.90
17092;DHT22;8661;45.700;4.880;2023-04-01T03:59:30;10.50;99.90
17092;DHT22;8661;45.700;4.880;2023-04-01T04:01:56;10.60;99.90
17092;DHT22;8661;45.700;4.880;2023-04-01T04:04:23;10.60;99.90
17092;DHT22;8661;45.700;4.880;2023-04-01T04:06:51;10.50;99.90
17092;DHT22;8661;45.700;4.880;2023-04-01T04:09:19;10.60;99.90
17092;DHT22;8661;45.700;4.880;2023-04-01T04:11:47;10.60;99.90
17092;DHT22;8661;45.700;4.880;2023-04-01T04:14:14;10.70;99.90
17092;DHT22;8661;45.700;4.880;2023-04-01T04:16:41;10.60;99.90
17092;DHT22;8661;45.700;4.880;2023-04-01T04:19:08;10.70;99.90
17092;DHT22;8661;45.700;4.880;2023-04-01T04:21:35;10.70;99.90
17092;DHT22;8661;45.700;4.880;2023-04-01T04:24:02;10.70;99.90
17092;DHT22;8661;45.700;4.880;2023-04-01T04:26:31;10.70;99.90
17092;DHT22;8661;45.700;4.880;2023-04-01T04:28:58;10.70;99.90
17092;DHT22;8661;45.700;4.880;2023-04-01T04:31:26;10.70;99.90
17092;DHT22;8661;45.700;4.880;2023-04-01T04:33:53;10.70;99.90
17092;DHT22;8661;45.700;4.880;2023-04-01T04:36:21;10.70;99.90
17092;DHT22;8661;45.700;4.880;2023-04-01T04:38:48;10.70;99.90
17092;DHT22;8661;45.700;4.880;2023-04-01T04:41:16;10.70;99.90
17092;DHT22;8661;45.700;4.880;2023-04-01T04:43:49;10.60;99.90
17092;DHT22;8661;45.700;4.880;2023-04-01T04:46:17;10.60;99.90
17092;DHT22;8661;45.700;4.880;2023-04-01T04:48:45;10.60;99.90
17092;DHT22;8661;45.700;4.880;2023-04-01T04:51:15;10.60;99.90
17092;DHT22;8661;45.700;4.880;2023-04-01T04:53:42;10.60;99.90
17092;DHT22;8661;45.700;4.880;2023-04-01T04:56:09;10.50;99.90
17092;DHT22;8661;45.700;4.880;2023-04-01T04:58:36;10.50;99.90
17092;DHT22;8661;45.700;4.880;2023-04-01T05:01:09;10.50;99.90
17092;DHT22;8661;45.700;4.880;2023-04-01T05:03:36;10.50;99.90
17092;DHT22;8661;45.700;4.880;2023-04-01T05:06:04;10.50;99.90
17092;DHT22;8661;45.700;4.880;2023-04-01T05:08:31;10.40;99.90
17092;DHT22;8661;45.700;4.880;2023-04-01T05:10:58;10.40;99.90
17092;DHT22;8661;45.700;4.880;2023-04-01T05:13:25;10.40;99.90
17092;DHT22;8661;45.700;4.880;2023-04-01T05:15:52;10.40;99.90
17092;DHT22;8661;45.700;4.880;2023-04-01T05:18:20;10.40;99.90
17092;DHT22;8661;45.700;4.880;2023-04-01T05:20:48;10.40;99.90
17092;DHT22;8661;45.700;4.880;2023-04-01T05:23:15;10.40;99.90
17092;DHT22;8661;45.700;4.880;2023-04-01T05:25:43;10.40;99.90
17092;DHT22;8661;45.700;4.880;2023-04-01T05:28:10;10.40;99.90
17092;DHT22;8661;45.700;4.880;2023-04-01T05:30:39;10.40;99.90
17092;DHT22;8661;45.700;4.880;2023-04-01T05:33:06;10.40;99.90
17092;DHT22;8661;45.700;4.880;2023-04-01T05:35:34;10.30;99.90
17092;DHT22;8661;45.700;4.880;2023-04-01T05:38:02;10.30;99.90
17092;DHT22;8661;45.700;4.880;2023-04-01T05:40:29;10.30;99.90
17092;DHT22;8661;45.700;4.880;2023-04-01T05:42:55;10.20;99.90
17092;DHT22;8661;45.700;4.880;2023-04-01T05:45:23;10.20;99.90
17092;DHT22;8661;45.700;4.880;2023-04-01T05:47:49;10.20;99.90
17092;DHT22;8661;45.700;4.880;2023-04-01T05:50:16;10.20;99.90
17092;DHT22;8661;45.700;4.880;2023-04-01T05:52:45;10.40;99.90
17092;DHT22;8661;45.700;4.880;2023-04-01T05:55:12;10.40;99.90
17092;DHT22;8661;45.700;4.880;2023-04-01T05:57:39;10.50;99.90
17092;DHT22;8661;45.700;4.880;2023-04-01T06:00:06;11.20;99.90
17092;DHT22;8661;45.700;4.880;2023-04-01T06:02:33;12.20;99.90
17092;DHT22;8661;45.700;4.880;2023-04-01T06:05:10;12.00;99.90
17092;DHT22;8661;45.700;4.880;2023-04-01T06:07:37;11.70;99.90
17092;DHT22;8661;45.700;4.880;2023-04-01T06:10:12;11.40;99.90
17092;DHT22;8661;45.700;4.880;2023-04-01T06:12:45;11.30;99.90
17092;DHT22;8661;45.700;4.880;2023-04-01T06:15:28;11.20;99.90
17092;DHT22;8661;45.700;4.880;2023-04-01T06:20:58;11.20;99.90
17092;DHT22;8661;45.700;4.880;2023-04-01T06:23:49;11.20;99.90
17092;DHT22;8661;45.700;4.880;2023-04-01T06:26:29;11.20;99.90
17092;DHT22;8661;45.700;4.880;2023-04-01T06:29:08;11.60;99.90
17092;DHT22;8661;45.700;4.880;2023-04-01T06:31:51;12.40;99.90
17092;DHT22;8661;45.700;4.880;2023-04-01T06:35:02;12.20;99.90
17092;DHT22;8661;45.700;4.880;2023-04-01T06:38:04;11.80;99.90
17092;DHT22;8661;45.700;4.880;2023-04-01T06:40:57;11.70;99.90
17092;DHT22;8661;45.700;4.880;2023-04-01T06:43:35;11.60;99.90
17092;DHT22;8661;45.700;4.880;2023-04-01T06:46:11;11.50;99.90
17092;DHT22;8661;45.700;4.880;2023-04-01T06:48:50;11.50;99.90
17092;DHT22;8661;45.700;4.880;2023-04-01T06:51:28;11.60;99.90
17092;DHT22;8661;45.700;4.880;2023-04-01T06:54:04;11.60;99.90
17092;DHT22;8661;45.700;4.880;2023-04-01T06:56:32;11.60;99.90
17092;DHT22;8661;45.700;4.880;2023-04-01T06:59:04;11.70;99.90
17092;DHT22;8661;45.700;4.880;2023-04-01T07:01:35;12.00;99.90
17092;DHT22;8661;45.700;4.880;2023-04-01T07:04:06;12.70;99.90
17092;DHT22;8661;45.700;4.880;2023-04-01T07:06:39;13.20;99.90
17092;DHT22;8661;45.700;4.880;2023-04-01T07:09:11;13.40;99.90
17092;DHT22;8661;45.700;4.880;2023-04-01T07:11:41;13.60;99.90
17092;DHT22;8661;45.700;4.880;2023-04-01T07:14:15;13.50;99.90
17092;DHT22;8661;45.700;4.880;2023-04-01T07:16:46;13.30;99.90
17092;DHT22;8661;45.700;4.880;2023-04-01T07:19:18;13.00;99.90
17092;DHT22;8661;45.700;4.880;2023-04-01T07:21:49;13.20;99.90
17092;DHT22;8661;45.700;4.880;2023-04-01T07:24:22;13.90;99.90
17092;DHT22;8661;45.700;4.880;2023-04-01T07:26:54;14.60;99.90
17092;DHT22;8661;45.700;4.880;2023-04-01T07:29:23;14.80;99.90
17092;DHT22;8661;45.700;4.880;2023-04-01T07:32:19;14.70;99.90
17092;DHT22;8661;45.700;4.880;2023-04-01T07:34:56;14.50;99.60
17092;DHT22;8661;45.700;4.880;2023-04-01T07:37:32;14.20;99.90
17092;DHT22;8661;45.700;4.880;2023-04-01T07:40:17;14.10;99.90
17092;DHT22;8661;45.700;4.880;2023-04-01T07:42:57;13.90;99.90
17092;DHT22;8661;45.700;4.880;2023-04-01T07:45:31;13.60;99.90
17092;DHT22;8661;45.700;4.880;2023-04-01T07:48:13;13.60;99.90
17092;DHT22;8661;45.700;4.880;2023-04-01T07:50:48;13.50;99.90
17092;DHT22;8661;45.700;4.880;2023-04-01T07:53:21;13.40;99.90
17092;DHT22;8661;45.700;4.880;2023-04-01T07:55:54;13.40;99.90
17092;DHT22;8661;45.700;4.880;2023-04-01T07:58:29;13.40;99.90
17092;DHT22;8661;45.700;4.880;2023-04-01T08:01:01;13.40;99.90
17092;DHT22;8661;45.700;4.880;2023-04-01T08:03:38;13.30;99.90
17092;DHT22;8661;45.700;4.880;2023-04-01T08:06:14;13.40;99.90
17092;DHT22;8661;45.700;4.880;2023-04-01T08:08:56;13.50;99.90
17092;DHT22;8661;45.700;4.880;2023-04-01T08:11:33;13.50;99.90
17092;DHT22;8661;45.700;4.880;2023-04-01T08:14:08;13.50;99.90
17092;DHT22;8661;45.700;4.880;2023-04-01T08:16:45;13.50;99.90
17092;DHT22;8661;45.700;4.880;2023-04-01T08:19:22;13.40;99.90
17092;DHT22;8661;45.700;4.880;2023-04-01T08:21:55;13.40;99.90
17092;DHT22;8661;45.700;4.880;2023-04-01T08:24:29;13.40;99.90
17092;DHT22;8661;45.700;4.880;2023-04-01T08:27:01;13.50;99.90
17092;DHT22;8661;45.700;4.880;2023-04-01T08:29:36;13.60;99.90
17092;DHT22;8661;45.700;4.880;2023-04-01T08:32:10;13.80;99.90
17092;DHT22;8661;45.700;4.880;2023-04-01T08:34:40;14.10;99.90
17092;DHT22;8661;45.700;4.880;2023-04-01T08:37:13;14.50;99.90
17092;DHT22;8661;45.700;4.880;2023-04-01T08:39:47;14.80;99.90
17092;DHT22;8661;45.700;4.880;2023-04-01T08:42:37;15.10;99.90
17092;DHT22;8661;45.700;4.880;2023-04-01T08:45:18;15.70;99.90
17092;DHT22;8661;45.700;4.880;2023-04-01T08:48:20;16.60;97.10
17092;DHT22;8661;45.700;4.880;2023-04-01T08:56:59;17.70;93.00
17092;DHT22;8661;45.700;4.880;2023-04-01T08:59:43;17.30;93.50
17092;DHT22;8661;45.700;4.880;2023-04-01T09:02:35;17.00;93.70
17092;DHT22;8661;45.700;4.880;2023-04-01T09:08:11;16.60;94.90
17092;DHT22;8661;45.700;4.880;2023-04-01T09:11:00;16.50;95.10
17092;DHT22;8661;45.700;4.880;2023-04-01T09:19:37;17.70;93.30
17092;DHT22;8661;45.700;4.880;2023-04-01T09:22:37;17.00;93.50
17092;DHT22;8661;45.700;4.880;2023-04-01T09:25:29;16.60;94.70
17092;DHT22;8661;45.700;4.880;2023-04-01T09:28:00;16.50;95.90
17092;DHT22;8661;45.700;4.880;2023-04-01T09:30:37;16.70;95.50
17092;DHT22;8661;45.700;4.880;2023-04-01T09:36:18;16.90;94.30
17092;DHT22;8661;45.700;4.880;2023-04-01T09:38:56;17.10;94.20
17092;DHT22;8661;45.700;4.880;2023-04-01T09:41:31;16.70;95.10
17092;DHT22;8661;45.700;4.880;2023-04-01T09:44:03;16.90;94.40
17092;DHT22;8661;45.700;4.880;2023-04-01T09:46:50;17.30;93.90
17092;DHT22;8661;45.700;4.880;2023-04-01T09:49:55;17.60;93.30
17092;DHT22;8661;45.700;4.880;2023-04-01T09:52:38;17.70;92.00
17092;DHT22;8661;45.700;4.880;2023-04-01T09:55:33;17.70;92.50
17092;DHT22;8661;45.700;4.880;2023-04-01T10:11:08;16.90;93.70
17092;DHT22;8661;45.700;4.880;2023-04-01T10:20:04;21.20;90.90
17092;DHT22;8661;45.700;4.880;2023-04-01T10:22:50;22.60;85.50
17092;DHT22;8661;45.700;4.880;2023-04-01T10:25:55;22.80;83.00
17092;DHT22;8661;45.700;4.880;2023-04-01T10:28:50;23.10;79.30
17092;DHT22;8661;45.700;4.880;2023-04-01T10:40:50;23.80;73.50
17092;DHT22;8661;45.700;4.880;2023-04-01T10:50:05;21.20;75.90
17092;DHT22;8661;45.700;4.880;2023-04-01T10:53:05;19.30;83.40
17092;DHT22;8661;45.700;4.880;2023-04-01T10:56:01;19.40;82.10
17092;DHT22;8661;45.700;4.880;2023-04-01T10:59:21;19.30;80.40
17092;DHT22;8661;45.700;4.880;2023-04-01T11:15:02;20.60;81.80
17092;DHT22;8661;45.700;4.880;2023-04-01T11:18:14;20.80;78.30
17092;DHT22;8661;45.700;4.880;2023-04-01T11:21:35;21.30;77.60
17092;DHT22;8661;45.700;4.880;2023-04-01T11:24:30;21.50;78.80
17092;DHT22;8661;45.700;4.880;2023-04-01T11:27:10;21.50;77.80
17092;DHT22;8661;45.700;4.880;2023-04-01T11:29:52;21.20;76.60
17092;DHT22;8661;45.700;4.880;2023-04-01T11:32:46;21.10;75.70
17092;DHT22;8661;45.700;4.880;2023-04-01T11:35:43;20.80;77.10
17092;DHT22;8661;45.700;4.880;2023-04-01T11:38:24;20.70;76.50
17092;DHT22;8661;45.700;4.880;2023-04-01T11:40:59;21.60;79.90
17092;DHT22;8661;45.700;4.880;2023-04-01T11:43:34;21.60;77.50
17092;DHT22;8661;45.700;4.880;2023-04-01T11:46:10;22.20;76.90
17092;DHT22;8661;45.700;4.880;2023-04-01T11:48:58;22.00;75.10
17092;DHT22;8661;45.700;4.880;2023-04-01T11:51:50;20.60;75.30
17092;DHT22;8661;45.700;4.880;2023-04-01T11:54:32;19.90;76.60
17092;DHT22;8661;45.700;4.880;2023-04-01T11:57:18;19.60;77.70
17092;DHT22;8661;45.700;4.880;2023-04-01T12:00:12;19.50;78.80
17092;DHT22;8661;45.700;4.880;2023-04-01T12:02:48;19.30;79.80
17092;DHT22;8661;45.700;4.880;2023-04-01T12:05:29;19.10;80.10
17092;DHT22;8661;45.700;4.880;2023-04-01T12:08:21;18.90;81.20
17092;DHT22;8661;45.700;4.880;2023-04-01T12:10:57;19.70;80.90
17092;DHT22;8661;45.700;4.880;2023-04-01T12:13:35;21.30;79.60
17092;DHT22;8661;45.700;4.880;2023-04-01T12:16:41;22.10;74.40
17092;DHT22;8661;45.700;4.880;2023-04-01T12:19:17;23.20;71.90
17092;DHT22;8661;45.700;4.880;2023-04-01T12:21:56;23.40;69.00
17092;DHT22;8661;45.700;4.880;2023-04-01T12:24:46;23.00;66.90
17092;DHT22;8661;45.700;4.880;2023-04-01T12:27:31;23.00;64.80
17092;DHT22;8661;45.700;4.880;2023-04-01T12:33:31;23.60;60.80
17092;DHT22;8661;45.700;4.880;2023-04-01T12:36:13;22.90;63.40
17092;DHT22;8661;45.700;4.880;2023-04-01T12:38:51;23.40;63.50
17092;DHT22;8661;45.700;4.880;2023-04-01T12:41:29;23.80;63.20
17092;DHT22;8661;45.700;4.880;2023-04-01T12:44:33;22.90;65.50
17092;DHT22;8661;45.700;4.880;2023-04-01T12:47:25;21.90;68.10
17092;DHT22;8661;45.700;4.880;2023-04-01T12:50:03;21.50;70.70
17092;DHT22;8661;45.700;4.880;2023-04-01T12:52:45;21.20;71.00
17092;DHT22;8661;45.700;4.880;2023-04-01T12:55:36;21.60;71.40
17092;DHT22;8661;45.700;4.880;2023-04-01T12:58:26;22.00;69.70
17092;DHT22;8661;45.700;4.880;2023-04-01T13:01:28;22.30;69.70
17092;DHT22;8661;45.700;4.880;2023-04-01T13:04:25;22.70;68.70
17092;DHT22;8661;45.700;4.880;2023-04-01T13:07:10;22.40;68.00
17092;DHT22;8661;45.700;4.880;2023-04-01T13:09:48;21.50;70.40
17092;DHT22;8661;45.700;4.880;2023-04-01T13:12:39;20.80;72.10
17092;DHT22;8661;45.700;4.880;2023-04-01T13:15:20;20.10;73.70
17092;DHT22;8661;45.700;4.880;2023-04-01T13:17:53;19.80;74.70
17092;DHT22;8661;45.700;4.880;2023-04-01T13:20:35;19.50;75.70
17092;DHT22;8661;45.700;4.880;2023-04-01T13:23:13;19.20;76.90
17092;DHT22;8661;45.700;4.880;2023-04-01T13:25:47;19.00;77.60
17092;DHT22;8661;45.700;4.880;2023-04-01T13:28:19;18.80;80.30
17092;DHT22;8661;45.700;4.880;2023-04-01T13:30:52;18.60;81.80
17092;DHT22;8661;45.700;4.880;2023-04-01T13:33:27;18.70;82.80
17092;DHT22;8661;45.700;4.880;2023-04-01T13:36:07;19.40;81.70
17092;DHT22;8661;45.700;4.880;2023-04-01T13:38:53;19.50;80.20
17092;DHT22;8661;45.700;4.880;2023-04-01T13:41:37;19.20;80.10
17092;DHT22;8661;45.700;4.880;2023-04-01T13:44:11;19.20;79.10
17092;DHT22;8661;45.700;4.880;2023-04-01T13:46:48;19.40;79.70
17092;DHT22;8661;45.700;4.880;2023-04-01T13:49:39;19.20;80.70
17092;DHT22;8661;45.700;4.880;2023-04-01T13:52:42;19.00;81.50
17092;DHT22;8661;45.700;4.880;2023-04-01T13:55:33;18.70;82.20
17092;DHT22;8661;45.700;4.880;2023-04-01T13:58:26;18.60;82.40
17092;DHT22;8661;45.700;4.880;2023-04-01T14:01:05;18.20;83.30
17092;DHT22;8661;45.700;4.880;2023-04-01T14:03:54;18.00;84.00
17092;DHT22;8661;45.700;4.880;2023-04-01T14:06:35;17.60;82.80
17092;DHT22;8661;45.700;4.880;2023-04-01T14:09:29;17.20;84.00
17092;DHT22;8661;45.700;4.880;2023-04-01T14:12:09;16.60;86.30
17092;DHT22;8661;45.700;4.880;2023-04-01T14:14:49;15.90;90.80
17092;DHT22;8661;45.700;4.880;2023-04-01T14:17:33;15.20;93.10
17092;DHT22;8661;45.700;4.880;2023-04-01T14:20:25;14.50;95.20
17092;DHT22;8661;45.700;4.880;2023-04-01T14:23:07;13.70;97.30
17092;DHT22;8661;45.700;4.880;2023-04-01T14:28:38;13.40;99.90
17092;DHT22;8661;45.700;4.880;2023-04-01T14:31:23;13.20;99.90
17092;DHT22;8661;45.700;4.880;2023-04-01T14:34:03;12.90;99.90
17092;DHT22;8661;45.700;4.880;2023-04-01T14:36:50;12.80;99.90
17092;DHT22;8661;45.700;4.880;2023-04-01T14:39:42;12.60;99.90
17092;DHT22;8661;45.700;4.880;2023-04-01T14:42:29;12.50;99.90
17092;DHT22;8661;45.700;4.880;2023-04-01T14:48:03;12.10;99.90
17092;DHT22;8661;45.700;4.880;2023-04-01T14:50:41;12.00;99.90
17092;DHT22;8661;45.700;4.880;2023-04-01T14:53:16;11.80;99.90
17092;DHT22;8661;45.700;4.880;2023-04-01T14:55:53;11.70;99.90
17092;DHT22;8661;45.700;4.880;2023-04-01T14:58:22;11.80;99.90
17092;DHT22;8661;45.700;4.880;2023-04-01T15:01:06;11.80;99.90
17092;DHT22;8661;45.700;4.880;2023-04-01T15:03:45;11.90;99.90
17092;DHT22;8661;45.700;4.880;2023-04-01T15:06:46;11.90;99.90
17092;DHT22;8661;45.700;4.880;2023-04-01T15:09:24;12.10;99.90
17092;DHT22;8661;45.700;4.880;2023-04-01T15:12:03;12.30;99.90
17092;DHT22;8661;45.700;4.880;2023-04-01T15:14:45;12.50;99.90
17092;DHT22;8661;45.700;4.880;2023-04-01T15:17:31;12.60;99.90
17092;DHT22;8661;45.700;4.880;2023-04-01T15:20:15;12.70;99.90
17092;DHT22;8661;45.700;4.880;2023-04-01T15:23:03;12.80;99.90
17092;DHT22;8661;45.700;4.880;2023-04-01T15:25:46;12.80;99.90
17092;DHT22;8661;45.700;4.880;2023-04-01T15:28:23;12.90;99.90
17092;DHT22;8661;45.700;4.880;2023-04-01T15:30:54;13.00;99.90
17092;DHT22;8661;45.700;4.880;2023-04-01T15:33:36;13.00;99.90
17092;DHT22;8661;45.700;4.880;2023-04-01T15:36:13;13.00;99.90
17092;DHT22;8661;45.700;4.880;2023-04-01T15:38:47;13.10;99.90
17092;DHT22;8661;45.700;4.880;2023-04-01T15:41:16;13.30;99.90
17092;DHT22;8661;45.700;4.880;2023-04-01T15:43:46;13.50;99.90
17092;DHT22;8661;45.700;4.880;2023-04-01T15:46:26;13.60;99.90
17092;DHT22;8661;45.700;4.880;2023-04-01T15:49:11;13.40;99.90
17092;DHT22;8661;45.700;4.880;2023-04-01T15:55:06;13.00;99.90
17092;DHT22;8661;45.700;4.880;2023-04-01T15:57:43;12.90;99.90
17092;DHT22;8661;45.700;4.880;2023-04-01T16:00:32;12.80;99.90
17092;DHT22;8661;45.700;4.880;2023-04-01T16:03:21;12.70;99.90
17092;DHT22;8661;45.700;4.880;2023-04-01T16:06:09;12.50;99.90
17092;DHT22;8661;45.700;4.880;2023-04-01T16:08:59;12.40;99.90
17092;DHT22;8661;45.700;4.880;2023-04-01T16:11:36;12.40;99.90
17092;DHT22;8661;45.700;4.880;2023-04-01T16:14:16;12.30;99.90
17092;DHT22;8661;45.700;4.880;2023-04-01T16:16:57;12.10;99.90
17092;DHT22;8661;45.700;4.880;2023-04-01T16:19:37;11.60;99.90
17092;DHT22;8661;45.700;4.880;2023-04-01T16:22:07;11.20;99.90
17092;DHT22;8661;45.700;4.880;2023-04-01T16:24:39;10.90;99.90
17092;DHT22;8661;45.700;4.880;2023-04-01T16:27:12;10.80;99.90
17092;DHT22;8661;45.700;4.880;2023-04-01T16:29:45;10.70;99.90
17092;DHT22;8661;45.700;4.880;2023-04-01T16:32:31;10.70;99.90
17092;DHT22;8661;45.700;4.880;2023-04-01T16:35:29;10.80;99.90
17092;DHT22;8661;45.700;4.880;2023-04-01T16:38:01;10.80;99.90
17092;DHT22;8661;45.700;4.880;2023-04-01T16:40:41;10.80;99.90
17092;DHT22;8661;45.700;4.880;2023-04-01T16:43:16;10.80;99.90
17092;DHT22;8661;45.700;4.880;2023-04-01T16:45:55;10.70;99.90
17092;DHT22;8661;45.700;4.880;2023-04-01T16:48:33;10.60;99.90
17092;DHT22;8661;45.700;4.880;2023-04-01T16:51:04;10.50;99.90
17092;DHT22;8661;45.700;4.880;2023-04-01T16:53:41;10.40;99.90
17092;DHT22;8661;45.700;4.880;2023-04-01T16:56:12;10.40;99.90
17092;DHT22;8661;45.700;4.880;2023-04-01T16:58:43;10.30;99.90
17092;DHT22;8661;45.700;4.880;2023-04-01T17:01:19;10.20;99.90
17092;DHT22;8661;45.700;4.880;2023-04-01T17:03:57;10.20;99.90
17092;DHT22;8661;45.700;4.880;2023-04-01T17:06:30;10.20;99.90
17092;DHT22;8661;45.700;4.880;2023-04-01T17:09:13;10.30;99.90
17092;DHT22;8661;45.700;4.880;2023-04-01T17:11:52;10.30;99.90
17092;DHT22;8661;45.700;4.880;2023-04-01T17:14:28;10.20;99.90
17092;DHT22;8661;45.700;4.880;2023-04-01T17:17:14;10.20;99.90
17092;DHT22;8661;45.700;4.880;2023-04-01T17:19:53;10.10;99.90
17092;DHT22;8661;45.700;4.880;2023-04-01T17:22:32;10.10;99.90
17092;DHT22;8661;45.700;4.880;2023-04-01T17:25:26;10.00;99.90
17092;DHT22;8661;45.700;4.880;2023-04-01T17:27:59;9.90;99.90
17092;DHT22;8661;45.700;4.880;2023-04-01T17:30:33;9.90;99.90
17092;DHT22;8661;45.700;4.880;2023-04-01T17:33:31;9.80;99.90
17092;DHT22;8661;45.700;4.880;2023-04-01T17:36:11;9.80;99.90
17092;DHT22;8661;45.700;4.880;2023-04-01T17:38:57;9.70;99.90
17092;DHT22;8661;45.700;4.880;2023-04-01T17:41:41;9.70;99.90
17092;DHT22;8661;45.700;4.880;2023-04-01T17:44:26;9.70;99.90
17092;DHT22;8661;45.700;4.880;2023-04-01T17:50:23;9.70;99.90
17092;DHT22;8661;45.700;4.880;2023-04-01T17:53:00;9.60;99.90
17092;DHT22;8661;45.700;4.880;2023-04-01T17:55:41;9.60;99.90
17092;DHT22;8661;45.700;4.880;2023-04-01T17:58:18;9.50;99.90
17092;DHT22;8661;45.700;4.880;2023-04-01T18:01:09;9.50;99.90
17092;DHT22;8661;45.700;4.880;2023-04-01T18:03:55;9.50;99.90
17092;DHT22;8661;45.700;4.880;2023-04-01T18:06:36;9.50;99.90
17092;DHT22;8661;45.700;4.880;2023-04-01T18:09:17;9.40;99.90
17092;DHT22;8661;45.700;4.880;2023-04-01T18:11:56;9.40;99.90
17092;DHT22;8661;45.700;4.880;2023-04-01T18:14:44;9.40;99.90
17092;DHT22;8661;45.700;4.880;2023-04-01T18:17:24;9.40;99.90